createdAt,value
2022-08-25T00:01:00.638Z,6.35
2022-08-25T00:05:02.248Z,6.70
2022-08-25T00:09:07.069Z,6.43
2022-08-25T00:13:09.238Z,6.28
2022-08-25T00:17:10.700Z,6.05
2022-08-25T00:21:14.709Z,6.45
2022-08-25T00:25:16.993Z,6.82
2022-08-25T00:29:19.137Z,7.22
2022-08-25T00:33:21.095Z,6.43
2022-08-25T00:37:22.580Z,6.95
2022-08-25T00:41:25.442Z,7.03
2022-08-25T00:45:27.493Z,6.97
2022-08-25T00:49:40.093Z,6.78
2022-08-25T00:53:43.348Z,6.60
2022-08-25T00:58:15.882Z,6.88
2022-08-25T01:02:18.365Z,6.65
2022-08-25T01:06:20.087Z,7.50
2022-08-25T01:10:22.656Z,6.70
2022-08-25T01:14:25.185Z,6.57
2022-08-25T01:18:29.070Z,7.32
2022-08-25T01:22:32.085Z,7.55
2022-08-25T01:26:35.474Z,6.78
2022-08-25T01:30:37.714Z,7.57
2022-08-25T01:34:42.973Z,7.82
2022-08-25T01:38:44.599Z,8.40
2022-08-25T01:43:31.897Z,7.68
2022-08-25T01:47:33.592Z,7.47
2022-08-25T01:51:42.493Z,8.02
2022-08-25T01:55:53.137Z,8.05
2022-08-25T01:59:55.752Z,7.45
2022-08-25T02:03:57.338Z,8.52
2022-08-25T02:07:59.038Z,8.88
2022-08-25T02:12:00.673Z,8.10
2022-08-25T02:16:02.371Z,7.78
2022-08-25T02:20:09.535Z,9.23
2022-08-25T02:24:12.293Z,8.77
2022-08-25T02:28:14.017Z,8.60
2022-08-25T02:32:15.483Z,9.00
2022-08-25T02:36:17.224Z,9.27
2022-08-25T02:40:21.464Z,8.98
2022-08-25T02:44:23.012Z,8.25
2022-08-25T02:48:24.517Z,8.02
2022-08-25T02:52:26.044Z,8.20
2022-08-25T02:56:28.315Z,7.78
2022-08-25T03:00:29.846Z,8.48
2022-08-25T03:04:31.977Z,8.57
2022-08-25T03:08:33.727Z,7.93
2022-08-25T03:12:35.331Z,9.10
2022-08-25T03:16:37.477Z,9.05
2022-08-25T03:20:39.498Z,8.90
2022-08-25T03:24:40.949Z,8.98
2022-08-25T03:28:42.484Z,9.43
2022-08-25T03:32:44.033Z,9.77
2022-08-25T03:36:48.163Z,10.18
2022-08-25T03:40:49.966Z,9.73
2022-08-25T03:44:51.552Z,10.48
2022-08-25T03:48:53.950Z,9.57
2022-08-25T03:52:56.749Z,10.02
2022-08-25T03:56:58.302Z,10.55
2022-08-25T04:01:00.546Z,10.80
2022-08-25T04:05:02.088Z,10.23
2022-08-25T04:09:04.558Z,10.57
2022-08-25T04:13:06.238Z,10.80
2022-08-25T04:17:08.450Z,10.32
2022-08-25T04:21:11.173Z,10.57
2022-08-25T04:25:13.515Z,11.73
2022-08-25T04:29:17.716Z,11.48
2022-08-25T04:33:19.241Z,10.75
2022-08-25T04:37:20.733Z,9.95
2022-08-25T04:41:24.316Z,10.45
2022-08-25T04:45:25.820Z,11.70
2022-08-25T04:49:28.088Z,12.45
2022-08-25T04:53:29.556Z,12.48
2022-08-25T04:57:31.048Z,12.27
2022-08-25T05:01:33.251Z,12.02
2022-08-25T05:05:37.318Z,12.50
2022-08-25T05:09:38.845Z,11.50
2022-08-25T05:13:41.363Z,10.35
2022-08-25T05:17:43.666Z,9.88
2022-08-25T05:21:45.153Z,9.65
2022-08-25T05:25:47.495Z,8.88
2022-08-25T05:29:49.027Z,9.70
2022-08-25T05:33:51.616Z,10.15
2022-08-25T05:37:53.065Z,10.40
2022-08-25T05:41:54.525Z,8.48
2022-08-25T05:45:58.115Z,9.57
2022-08-25T05:49:59.718Z,9.73
2022-08-25T05:54:01.182Z,13.00
2022-08-25T05:58:02.704Z,13.25
2022-08-25T06:02:22.865Z,12.75
2022-08-25T06:06:24.442Z,13.95
2022-08-25T06:10:27.053Z,15.23
2022-08-25T06:14:28.538Z,14.30
2022-08-25T06:18:30.009Z,15.20
2022-08-25T06:22:31.445Z,15.60
2022-08-25T06:26:34.328Z,15.52
2022-08-25T06:30:36.229Z,14.90
2022-08-25T06:34:37.845Z,14.60
2022-08-25T06:38:39.335Z,14.55
2022-08-25T06:42:40.994Z,16.17
2022-08-25T06:46:42.455Z,14.25
2022-08-25T06:50:44.647Z,15.65
2022-08-25T06:54:47.048Z,13.80
2022-08-25T06:58:50.662Z,15.75
2022-08-25T07:02:52.114Z,15.48
2022-08-25T07:06:55.509Z,15.77
2022-08-25T07:10:57.717Z,15.50
2022-08-25T07:15:20.663Z,14.30
2022-08-25T07:19:22.194Z,14.50
2022-08-25T07:23:24.392Z,14.38
2022-08-25T07:27:26.274Z,13.68
2022-08-25T07:31:29.486Z,14.10
2022-08-25T07:35:36.527Z,13.57
2022-08-25T07:39:39.434Z,15.05
2022-08-25T07:43:41.751Z,13.50
2022-08-25T07:47:43.272Z,13.43
2022-08-25T07:52:05.100Z,11.90
2022-08-25T07:56:15.208Z,13.05
2022-08-25T08:00:17.975Z,12.73
2022-08-25T08:04:22.294Z,12.35
2022-08-25T08:08:23.741Z,12.55
2022-08-25T08:12:26.865Z,11.85
2022-08-25T08:16:30.145Z,11.98
2022-08-25T08:20:42.839Z,12.45
2022-08-25T08:24:54.820Z,12.65
2022-08-25T08:28:57.905Z,11.55
2022-08-25T08:33:09.600Z,11.05
2022-08-25T08:37:11.747Z,11.70
2022-08-25T08:41:48.953Z,11.15
2022-08-25T08:45:57.366Z,11.02
2022-08-25T08:50:55.553Z,10.90
2022-08-25T08:55:02.716Z,11.00
2022-08-25T08:59:16.049Z,9.65
2022-08-25T09:03:41.547Z,9.98
2022-08-25T09:07:49.500Z,9.98
2022-08-25T09:12:20.323Z,10.77
2022-08-25T09:16:50.036Z,10.68
2022-08-25T09:25:04.357Z,9.68
2022-08-25T09:29:16.486Z,8.55
2022-08-25T09:37:23.462Z,9.20
2022-08-25T09:41:51.312Z,8.55
2022-08-25T09:46:01.786Z,7.97
2022-08-25T09:50:05.354Z,8.23
2022-08-25T09:54:13.174Z,8.05
2022-08-25T09:58:22.307Z,6.57
2022-08-25T10:02:27.624Z,6.82
2022-08-25T10:06:55.900Z,7.18
2022-08-25T10:10:59.338Z,7.33
2022-08-25T10:15:15.413Z,7.60
2022-08-25T10:19:31.607Z,7.47
2022-08-25T10:23:37.231Z,6.15
2022-08-25T10:27:52.732Z,6.72
2022-08-25T10:32:01.220Z,7.47
2022-08-25T10:36:22.693Z,5.78
2022-08-25T10:40:46.138Z,6.82
2022-08-25T10:45:11.414Z,6.00
2022-08-25T10:49:24.626Z,6.70
2022-08-25T10:54:05.905Z,6.18
2022-08-25T10:58:35.885Z,6.05
2022-08-25T11:03:05.224Z,6.35
2022-08-25T11:07:14.090Z,5.88
2022-08-25T11:11:32.982Z,5.90
2022-08-25T11:16:06.263Z,5.38
2022-08-25T11:20:16.363Z,5.88
2022-08-25T11:24:59.624Z,5.47
2022-08-25T11:29:16.996Z,6.28
2022-08-25T11:33:19.914Z,6.40
2022-08-25T11:37:26.867Z,6.68
2022-08-25T11:42:05.061Z,5.75
2022-08-25T11:46:22.153Z,5.68
2022-08-25T11:50:54.569Z,5.45
2022-08-25T11:54:56.245Z,6.25
2022-08-25T11:59:00.540Z,5.25
2022-08-25T12:03:36.982Z,5.10
2022-08-25T12:08:10.401Z,5.32
2022-08-25T12:12:39.025Z,5.53
2022-08-25T12:17:04.786Z,5.68
2022-08-25T12:21:06.208Z,5.05
2022-08-25T12:25:29.864Z,5.53
2022-08-25T12:29:53.035Z,5.47
2022-08-25T12:34:04.497Z,5.70
2022-08-25T12:38:14.407Z,5.72
2022-08-25T12:42:32.552Z,5.60
2022-08-25T12:46:39.362Z,5.68
2022-08-25T12:50:44.563Z,5.13
2022-08-25T12:54:55.355Z,5.35
2022-08-25T12:59:03.305Z,6.15
2022-08-25T13:03:14.752Z,5.55
2022-08-25T13:07:55.055Z,5.38
2022-08-25T13:12:14.193Z,5.78
2022-08-25T13:16:28.399Z,5.38
2022-08-25T13:20:30.708Z,5.40
2022-08-25T13:24:40.427Z,6.22
2022-08-25T13:28:50.352Z,4.70
2022-08-25T13:32:52.117Z,5.10
2022-08-25T13:37:30.377Z,4.82
2022-08-25T13:41:34.048Z,5.50
2022-08-25T13:45:41.889Z,5.13
2022-08-25T13:49:47.568Z,4.95
2022-08-25T13:53:53.548Z,4.90
2022-08-25T13:57:58.737Z,5.32
2022-08-25T14:02:00.610Z,4.43
2022-08-25T14:06:14.461Z,4.65
2022-08-25T14:10:44.455Z,4.35
2022-08-25T14:14:58.138Z,4.70
2022-08-25T14:19:01.789Z,5.15
2022-08-25T14:23:16.168Z,5.22
2022-08-25T14:27:21.146Z,4.32
2022-08-25T14:31:30.392Z,5.13
2022-08-25T14:35:33.932Z,3.95
2022-08-25T14:39:35.391Z,4.00
2022-08-25T14:43:37.190Z,4.53
2022-08-25T14:47:40.467Z,4.68
2022-08-25T14:51:43.418Z,4.25
2022-08-25T14:55:44.941Z,4.20
2022-08-25T14:59:46.612Z,4.15
2022-08-25T15:03:52.330Z,3.88
2022-08-25T15:08:12.928Z,4.53
2022-08-25T15:12:17.799Z,4.20
2022-08-25T15:16:35.230Z,5.38
2022-08-25T15:20:36.948Z,4.78
2022-08-25T15:24:39.092Z,4.65
2022-08-25T15:28:48.382Z,4.47
2022-08-25T15:32:50.626Z,4.75
2022-08-25T15:36:52.426Z,4.28
2022-08-25T15:40:53.872Z,4.95
2022-08-25T15:44:56.051Z,4.47
2022-08-25T15:48:59.485Z,5.30
2022-08-25T15:53:00.953Z,5.15
2022-08-25T15:57:02.499Z,5.03
2022-08-25T16:01:04.806Z,4.90
2022-08-25T16:05:11.559Z,5.47
2022-08-25T16:09:15.058Z,4.88
2022-08-25T16:13:16.650Z,4.50
2022-08-25T16:17:20.161Z,4.47
2022-08-25T16:21:29.131Z,4.13
2022-08-25T16:25:31.512Z,4.95
2022-08-25T16:29:36.849Z,5.70
2022-08-25T16:33:39.661Z,5.00
2022-08-25T16:37:41.300Z,5.28
2022-08-25T16:41:44.333Z,5.00
2022-08-25T16:45:46.241Z,4.57
2022-08-25T16:49:48.256Z,5.10
2022-08-25T16:54:08.253Z,4.82
2022-08-25T16:58:13.542Z,5.03
2022-08-25T17:02:15.190Z,4.68
2022-08-25T17:06:16.742Z,4.72
2022-08-25T17:10:18.372Z,4.78
2022-08-25T17:14:19.974Z,6.85
2022-08-25T17:18:21.562Z,4.95
2022-08-25T17:22:25.440Z,5.00
2022-08-25T17:26:30.252Z,5.70
2022-08-25T17:30:33.551Z,4.32
2022-08-25T17:34:36.565Z,6.22
2022-08-25T17:38:40.452Z,5.43
2022-08-25T17:42:42.733Z,6.60
2022-08-25T17:46:47.118Z,6.05
2022-08-25T17:50:49.408Z,5.88
2022-08-25T17:54:52.586Z,6.70
2022-08-25T17:58:55.663Z,6.05
2022-08-25T18:02:57.820Z,7.50
2022-08-25T18:06:59.302Z,6.05
2022-08-25T18:11:01.568Z,6.90
2022-08-25T18:15:05.684Z,6.40
2022-08-25T18:19:09.655Z,7.03
2022-08-25T18:23:12.962Z,7.03
2022-08-25T18:27:14.499Z,8.75
2022-08-25T18:31:16.444Z,5.78
2022-08-25T18:35:21.816Z,6.45
2022-08-25T18:39:46.858Z,7.00
2022-08-25T18:43:48.427Z,7.15
2022-08-25T18:47:56.408Z,7.25
2022-08-25T18:52:01.370Z,6.70
2022-08-25T18:56:03.255Z,7.18
2022-08-25T19:00:06.326Z,6.63
2022-08-25T19:04:08.212Z,7.70
2022-08-25T19:08:12.340Z,8.90
2022-08-25T19:12:22.288Z,9.35
2022-08-25T19:16:38.192Z,8.85
2022-08-25T19:20:42.016Z,7.53
2022-08-25T19:24:44.487Z,7.97
2022-08-25T19:28:48.852Z,8.00
2022-08-25T19:32:52.412Z,7.00
2022-08-25T19:36:54.703Z,8.07
2022-08-25T19:40:58.399Z,8.23
2022-08-25T19:45:10.172Z,7.93
2022-08-25T19:49:18.728Z,7.78
2022-08-25T19:57:28.194Z,7.60
2022-08-25T20:01:47.149Z,8.25
2022-08-25T20:05:51.203Z,7.80
2022-08-25T20:09:53.989Z,9.32
2022-08-25T20:13:59.311Z,6.88
2022-08-25T20:18:04.769Z,8.85
2022-08-25T20:22:06.924Z,8.82
2022-08-25T20:26:12.682Z,9.05
2022-08-25T20:30:20.611Z,11.70
2022-08-25T20:34:22.152Z,9.68
2022-08-25T20:38:24.040Z,9.60
2022-08-25T20:42:25.620Z,8.65
2022-08-25T20:46:28.181Z,8.10
2022-08-25T20:50:30.011Z,8.75
2022-08-25T20:54:31.532Z,8.55
2022-08-25T20:58:36.866Z,7.88
2022-08-25T21:02:38.486Z,8.82
2022-08-25T21:06:40.884Z,9.38
2022-08-25T21:10:42.365Z,7.85
2022-08-25T21:14:44.313Z,8.55
2022-08-25T21:18:48.159Z,8.93
2022-08-25T21:22:51.166Z,8.55
2022-08-25T21:26:57.070Z,8.38
2022-08-25T21:30:58.579Z,9.25
2022-08-25T21:35:00.166Z,7.82
2022-08-25T21:39:01.763Z,9.10
2022-08-25T21:43:03.899Z,8.63
2022-08-25T21:47:05.649Z,9.43
2022-08-25T21:51:15.839Z,9.10
2022-08-25T21:55:17.285Z,9.65
2022-08-25T21:59:22.211Z,9.13
2022-08-25T22:03:23.759Z,8.95
2022-08-25T22:07:25.631Z,9.32
2022-08-25T22:11:28.173Z,9.18
2022-08-25T22:15:31.850Z,9.02
2022-08-25T22:19:33.306Z,8.45
2022-08-25T22:23:44.233Z,9.05
2022-08-25T22:27:46.233Z,9.02
2022-08-25T22:31:51.088Z,8.82
2022-08-25T22:36:00.002Z,8.77
2022-08-25T22:40:03.953Z,8.85
2022-08-25T22:44:05.951Z,8.73
2022-08-25T22:48:07.602Z,8.85
2022-08-25T22:52:09.344Z,8.93
2022-08-25T22:56:17.412Z,8.75
2022-08-25T23:00:19.458Z,8.73
2022-08-25T23:04:21.322Z,8.57
2022-08-25T23:08:38.962Z,9.68
2022-08-25T23:12:42.676Z,9.23
2022-08-25T23:16:45.921Z,9.32
2022-08-25T23:21:06.146Z,8.90
2022-08-25T23:25:07.950Z,9.18
2022-08-25T23:29:18.275Z,7.95
2022-08-25T23:33:21.463Z,8.30
2022-08-25T23:37:22.974Z,8.82
2022-08-25T23:41:25.686Z,8.73
2022-08-25T23:45:27.212Z,8.40
2022-08-25T23:49:28.792Z,8.63
2022-08-25T23:53:31.653Z,8.40
2022-08-25T23:57:33.412Z,9.10
